Sac City, IA (50583)

9:29 AM CDT on April 27, 2017 (GMT -0500)
Lake City | | Change Station

Elev 1191 ft 42.30 °N, 94.75 °W | Updated 21 seconds ago

Overcast
Overcast
33.3 °F
Feels Like 29 °F
N
4.5
Wind Variable Wind from WSW
Gusts 7.4 mph

Today
High -- | Low -- °F
--% Chance of Precip.
Yesterday
High -- | Low -- °F
Precip. -- in
Pressure 29.65 in
Visibility 10.0 miles
Clouds Mostly Cloudy 1200 ft
Windchill 29 °F
Dew Point -4 °F
Humidity 20%
Rainfall 0.00 in
Snow Depth Not available.
6:20 AM 8:15 PM
New Moon, 2% visible
METAR KSLB 271415Z AUTO 31016KT 10SM BKN012 M01/M03 A2965 RMK AO2
Pressure 29.65 in
Visibility 10.0 miles
Clouds Mostly Cloudy 1200 ft
Windchill 29 °F
Dew Point -4 °F
Humidity 20%
Rainfall 0.00 in
Snow Depth Not available.
6:20 AM 8:15 PM
New Moon, 2% visible
METAR KSLB 271415Z AUTO 31016KT 10SM BKN012 M01/M03 A2965 RMK AO2

Get Severe Weather Alerts

Thanks for signing up!

Be on the lookout for a verification email in your inbox.

You'll start receiving the daily forecast at 8 AM.

×

10-Day Weather Forecast

Almanac

Astronomy

Apr. 27, 2017 Rise Set
Actual Time
Civil Twilight
Nautical Twilight
Astronomical Twilight
Moon
Length of Visible Light
Length of Day
Tomorrow will be .
, % of the Moon is Illuminated

Today's Extremes

State Highs State Lows

Community

WunderPhotos

WunderBlog® & News

Nearby

Air Quality

  Air Quality AQ Index Pollutant
Not available.

Snow Depth

Station Depth Elevation

Earthquake Activity

City Distance Mag. Time & Date
Minimum magnitude displayed is 2.5.

Coastal Water Temperatures

Place Temperature

Stations

Nearby Weather Stations

Station Location Temp. Windchill Dew Point Humidity Wind Precip. Elev Updated Type
                   

Watches & Warnings

There are currently no watches in effect.